Time;durP1;ratioP1;P1;durP2;ratioP2;P2;SDS_P1;SDS_P2;PMS_P1;PMS_P2;Temp;Humidity;BMP_temperature;BMP_pressure;BME280_temperature;BME280_humidity;BME280_pressure;Samples;Min_cycle;Max_cycle;Signal;HPM_P1;HPM_P2
2023/10/10 00:04:43;;;;;;;24.30;17.43;;;4.80;99.90;;;;;;12728640;23;20623;-80
2023/10/10 00:09:46;;;;;;;29.33;19.77;;;4.90;99.90;;;;;;12729841;23;20169;-81
2023/10/10 00:14:50;;;;;;;19.77;14.03;;;4.90;99.90;;;;;;12702903;23;20563;-80
2023/10/10 00:19:54;;;;;;;23.90;16.50;;;5.10;99.90;;;;;;12745879;23;20496;-80
2023/10/10 00:24:57;;;;;;;23.63;15.87;;;5.00;99.90;;;;;;12729943;23;20168;-81
2023/10/10 00:30:00;;;;;;;25.60;17.30;;;4.80;99.90;;;;;;12704117;23;20168;-81
2023/10/10 00:35:05;;;;;;;26.67;17.63;;;4.70;99.90;;;;;;12750616;23;20164;-80
2023/10/10 00:40:09;;;;;;;25.50;16.33;;;4.60;99.90;;;;;;12733581;23;20282;-80
2023/10/10 00:45:14;;;;;;;26.37;16.37;;;4.80;99.90;;;;;;12706724;23;20582;-81
2023/10/10 00:50:18;;;;;;;21.23;16.53;;;5.20;99.90;;;;;;12707456;23;20176;-80
2023/10/10 00:55:24;;;;;;;23.40;15.50;;;4.80;99.90;;;;;;12706616;23;20275;-80
2023/10/10 01:00:30;;;;;;;24.40;15.77;;;4.60;99.90;;;;;;12749932;23;20512;-80
2023/10/10 01:05:40;;;;;;;25.00;16.20;;;4.60;99.90;;;;;;12707246;23;20176;-80
2023/10/10 01:10:43;;;;;;;26.90;17.33;;;4.60;99.90;;;;;;12751255;23;20168;-81
2023/10/10 01:15:46;;;;;;;22.57;16.87;;;4.50;99.90;;;;;;12706911;23;20578;-81
2023/10/10 01:20:49;;;;;;;24.03;16.30;;;4.60;99.90;;;;;;12706180;23;20216;-80
2023/10/10 01:25:52;;;;;;;16.73;13.10;;;4.70;99.90;;;;;;12732601;23;20203;-80
2023/10/10 01:36:02;;;;;;;22.23;15.67;;;4.50;99.90;;;;;;12705210;23;20192;-80
2023/10/10 01:41:15;;;;;;;25.03;15.97;;;4.50;99.90;;;;;;12705301;23;20258;-81
2023/10/10 01:46:27;;;;;;;24.03;15.93;;;4.60;99.90;;;;;;12704655;23;20181;-80
2023/10/10 01:51:34;;;;;;;24.40;15.30;;;4.90;99.90;;;;;;12705348;23;20523;-81
2023/10/10 01:56:38;;;;;;;38.27;18.60;;;4.90;99.90;;;;;;12705340;23;20199;-81
2023/10/10 02:01:41;;;;;;;38.40;17.53;;;5.20;99.90;;;;;;12705251;23;20502;-80
2023/10/10 02:06:45;;;;;;;35.27;19.73;;;5.20;99.90;;;;;;12705793;23;20211;-80
2023/10/10 02:11:53;;;;;;;36.60;19.63;;;5.10;99.90;;;;;;12705421;23;20567;-80
2023/10/10 02:16:59;;;;;;;35.00;20.13;;;5.00;99.90;;;;;;12743637;23;20180;-80
2023/10/10 02:22:12;;;;;;;55.57;24.37;;;5.10;99.90;;;;;;12746645;23;20214;-80
2023/10/10 02:27:22;;;;;;;38.43;20.53;;;5.20;99.90;;;;;;12749260;23;20204;-80
2023/10/10 02:32:25;;;;;;;35.53;20.47;;;5.10;99.90;;;;;;12715811;23;20510;-80
2023/10/10 02:37:45;;;;;;;31.47;20.33;;;5.10;99.90;;;;;;12704619;23;20212;-80
2023/10/10 02:43:16;;;;;;;29.53;18.20;;;5.10;99.90;;;;;;12721888;23;20167;-80
2023/10/10 02:48:20;;;;;;;23.90;16.40;;;5.40;99.90;;;;;;12703429;23;20242;-80
2023/10/10 02:53:23;;;;;;;27.33;18.43;;;5.40;99.90;;;;;;12748403;23;20226;-80
2023/10/10 02:58:28;;;;;;;23.17;16.10;;;5.60;99.90;;;;;;12704294;23;20244;-80
2023/10/10 03:03:30;;;;;;;32.47;18.80;;;5.60;99.90;;;;;;12703784;23;20235;-80
2023/10/10 03:18:53;;;;;;;23.87;18.13;;;5.90;99.90;;;;;;12703632;23;20570;-80
2023/10/10 03:24:06;;;;;;;22.00;14.67;;;5.90;99.90;;;;;;12703292;23;20172;-80
2023/10/10 03:29:20;;;;;;;24.37;16.57;;;6.10;99.90;;;;;;12702982;23;20829;-81
2023/10/10 03:34:42;;;;;;;28.70;17.17;;;6.20;99.90;;;;;;12703297;23;20508;-80
2023/10/10 03:39:55;;;;;;;17.67;13.63;;;5.90;99.90;;;;;;12736904;23;20196;-80
2023/10/10 05:26:54;;;;;;;40.77;25.73;;;7.00;99.90;;;;;;12504751;23;20201;-80
2023/10/10 05:31:59;;;;;;;33.60;23.10;;;7.20;99.90;;;;;;12686159;23;20176;-80
2023/10/10 05:37:03;;;;;;;39.80;23.93;;;7.20;99.90;;;;;;12711681;23;20195;-81
2023/10/10 05:42:08;;;;;;;41.17;25.97;;;7.10;99.90;;;;;;12731646;23;20495;-81
2023/10/10 05:47:11;;;;;;;42.77;26.30;;;7.20;99.90;;;;;;12731119;23;20520;-82
2023/10/10 05:52:13;;;;;;;40.63;25.63;;;7.30;99.90;;;;;;12732277;23;20176;-82
2023/10/10 05:57:16;;;;;;;44.03;29.07;;;7.60;99.90;;;;;;12734479;23;20215;-81
2023/10/10 06:02:21;;;;;;;46.43;29.17;;;7.80;99.90;;;;;;12733435;23;20235;-82
2023/10/10 06:07:24;;;;;;;34.23;24.80;;;8.10;99.90;;;;;;12706320;23;20204;-81
2023/10/10 06:12:28;;;;;;;34.20;22.93;;;8.10;99.90;;;;;;12749483;23;20488;-82
2023/10/10 06:17:33;;;;;;;30.00;19.73;;;8.20;99.90;;;;;;12732242;23;20220;-82
2023/10/10 06:22:37;;;;;;;24.57;18.13;;;8.40;99.90;;;;;;12733167;23;20222;-81
2023/10/10 06:27:40;;;;;;;23.50;16.53;;;8.80;99.90;;;;;;12707349;23;20169;-82
2023/10/10 06:32:46;;;;;;;22.40;17.97;;;9.20;99.90;;;;;;12705192;23;20229;-82
2023/10/10 06:37:51;;;;;;;22.53;18.03;;;9.60;99.90;;;;;;12705533;23;20543;-83
2023/10/10 06:42:56;;;;;;;23.33;15.77;;;9.90;99.90;;;;;;12730271;23;20176;-82
2023/10/10 06:48:02;;;;;;;19.83;15.40;;;10.10;99.90;;;;;;12715858;23;20180;-82
2023/10/10 06:53:05;;;;;;;22.33;17.17;;;10.20;99.90;;;;;;12730358;23;20200;-82
2023/10/10 06:58:12;;;;;;;21.37;16.53;;;10.40;99.90;;;;;;12731624;23;20535;-82
2023/10/10 07:03:30;;;;;;;16.80;11.60;;;10.40;99.90;;;;;;12704303;23;20203;-82
2023/10/10 07:08:34;;;;;;;22.87;17.40;;;10.50;99.90;;;;;;12749786;23;20175;-82
2023/10/10 07:13:43;;;;;;;18.83;13.43;;;10.80;99.90;;;;;;12732071;23;20235;-82
2023/10/10 07:18:55;;;;;;;24.37;18.60;;;11.10;99.90;;;;;;12737808;23;20575;-82
2023/10/10 07:24:13;;;;;;;20.20;16.17;;;11.20;99.90;;;;;;12730131;23;20239;-82
2023/10/10 07:29:26;;;;;;;17.53;12.43;;;11.20;99.90;;;;;;12746321;23;20172;-82
2023/10/10 07:34:41;;;;;;;20.43;16.60;;;11.50;99.90;;;;;;12733368;23;20176;-82
2023/10/10 07:40:06;;;;;;;16.80;12.43;;;11.50;99.90;;;;;;12703940;23;20597;-82
2023/10/10 07:45:15;;;;;;;18.93;13.53;;;11.50;99.90;;;;;;12729811;23;20493;-82
2023/10/10 07:50:18;;;;;;;18.40;13.13;;;11.50;99.90;;;;;;12704847;23;20185;-82
2023/10/10 07:55:32;;;;;;;19.93;14.27;;;11.70;99.90;;;;;;12705488;23;20184;-82
2023/10/10 08:00:39;;;;;;;17.43;12.77;;;11.80;99.90;;;;;;12747511;23;20195;-82
2023/10/10 08:05:42;;;;;;;15.43;11.70;;;12.10;99.90;;;;;;12748216;23;20168;-82
2023/10/10 08:10:49;;;;;;;16.60;12.70;;;12.50;99.90;;;;;;12703368;23;20584;-82
2023/10/10 08:25:59;;;;;;;17.23;12.73;;;12.90;94.90;;;;;;12703588;23;20176;-82
2023/10/10 08:31:02;;;;;;;17.47;13.77;;;13.10;95.40;;;;;;12729880;23;20211;-82
2023/10/10 08:36:05;;;;;;;10.43;8.43;;;13.30;95.00;;;;;;12702476;23;20562;-82
2023/10/10 08:41:08;;;;;;;18.87;15.07;;;13.50;95.20;;;;;;12703411;23;20590;-83
2023/10/10 08:46:13;;;;;;;15.13;13.23;;;13.50;93.20;;;;;;12746775;23;20564;-83
2023/10/10 08:51:17;;;;;;;13.87;11.53;;;13.40;93.40;;;;;;12702498;23;20578;-83
2023/10/10 08:56:20;;;;;;;15.50;12.03;;;13.30;93.40;;;;;;12707036;23;20570;-83
2023/10/10 09:01:23;;;;;;;12.70;10.30;;;13.50;93.50;;;;;;12733038;23;20204;-82
2023/10/10 09:07:42;;;;;;;18.97;13.30;;;13.70;93.50;;;;;;12732939;23;20169;-82
2023/10/10 09:12:15;;;;;;;18.67;14.00;;;13.90;92.10;;;;;;12680830;23;20175;-82
2023/10/10 09:17:29;;;;;;;15.73;13.57;;;14.10;91.00;;;;;;12680597;23;20575;-82
2023/10/10 09:22:42;;;;;;;17.17;13.13;;;14.00;92.20;;;;;;12705407;23;20181;-82
2023/10/10 09:28:04;;;;;;;17.17;12.43;;;14.20;91.70;;;;;;12748927;23;20172;-83
2023/10/10 09:33:14;;;;;;;15.97;13.57;;;14.60;91.00;;;;;;12740968;23;20172;-82
2023/10/10 09:38:20;;;;;;;12.07;10.37;;;14.70;89.60;;;;;;12731314;23;20667;-82
2023/10/10 09:43:35;;;;;;;11.53;8.97;;;14.60;88.70;;;;;;12749161;23;20168;-82
2023/10/10 09:53:47;;;;;;;15.43;12.40;;;14.70;90.00;;;;;;12731370;23;20187;-82
2023/10/10 09:58:53;;;;;;;11.93;8.93;;;14.70;87.60;;;;;;12704991;23;20251;-82
2023/10/10 10:04:05;;;;;;;17.73;15.27;;;14.50;90.00;;;;;;12737367;23;20168;-83
2023/10/10 10:09:32;;;;;;;19.27;13.80;;;14.60;87.70;;;;;;12731436;23;20571;-82
2023/10/10 10:15:12;;;;;;;21.50;16.80;;;14.20;89.30;;;;;;12704714;23;20710;-82
2023/10/10 10:20:25;;;;;;;11.73;10.13;;;14.20;90.40;;;;;;12705322;23;20196;-82
2023/10/10 10:25:31;;;;;;;16.77;13.80;;;14.20;91.80;;;;;;12705554;23;20168;-83
2023/10/10 10:30:47;;;;;;;15.60;12.57;;;14.20;91.40;;;;;;12748420;23;20482;-83
2023/10/10 10:36:05;;;;;;;20.73;14.73;;;14.50;90.80;;;;;;12704946;23;20667;-83
2023/10/10 10:41:17;;;;;;;21.53;17.50;;;14.40;91.50;;;;;;12707959;23;20196;-83
2023/10/10 10:46:39;;;;;;;16.73;14.90;;;14.50;91.20;;;;;;12729048;23;20247;-83
2023/10/10 10:51:48;;;;;;;16.97;12.97;;;14.60;95.70;;;;;;12747880;23;20168;-82
2023/10/10 10:56:50;;;;;;;20.52;15.43;;;14.60;91.50;;;;;;12729354;23;20571;-82
2023/10/10 11:01:57;;;;;;;20.10;15.25;;;14.90;90.90;;;;;;12704128;23;20196;-82
2023/10/10 11:07:04;;;;;;;22.10;17.63;;;14.80;91.00;;;;;;12730493;23;20219;-82
2023/10/10 11:12:08;;;;;;;20.80;16.47;;;14.60;89.90;;;;;;12729428;23;20207;-81
2023/10/10 11:17:18;;;;;;;16.70;12.57;;;14.80;91.10;;;;;;12730214;23;20176;-83
2023/10/10 11:22:39;;;;;;;21.17;17.80;;;14.90;90.90;;;;;;12721117;23;20228;-83
2023/10/10 11:27:44;;;;;;;18.00;14.77;;;15.10;90.10;;;;;;12748866;23;20168;-82
2023/10/10 11:32:47;;;;;;;17.00;14.63;;;15.20;89.80;;;;;;12704034;23;20234;-82
2023/10/10 11:37:59;;;;;;;14.07;11.30;;;15.20;89.30;;;;;;12729568;23;20192;-82
2023/10/10 11:43:03;;;;;;;19.77;15.97;;;15.20;88.50;;;;;;12747167;23;20235;-82
2023/10/10 11:48:14;;;;;;;15.60;11.53;;;15.10;88.10;;;;;;12730082;23;20234;-83
2023/10/10 11:53:23;;;;;;;16.90;13.47;;;15.20;89.50;;;;;;12747166;23;20180;-82
2023/10/10 11:58:36;;;;;;;16.52;13.05;;;15.10;88.80;;;;;;12729066;23;20200;-81
2023/10/10 12:08:48;;;;;;;17.90;14.20;;;15.00;87.20;;;;;;12729453;23;20223;-82
2023/10/10 12:13:52;;;;;;;16.30;13.70;;;15.20;90.30;;;;;;12729365;23;20598;-82
2023/10/10 12:18:55;;;;;;;21.03;16.17;;;15.40;89.80;;;;;;12702877;23;20223;-81
2023/10/10 12:23:58;;;;;;;17.03;13.20;;;15.40;88.50;;;;;;12702461;23;20519;-82
2023/10/10 12:29:04;;;;;;;23.67;17.83;;;15.60;90.00;;;;;;12748359;23;20262;-82
2023/10/10 12:34:09;;;;;;;17.40;13.63;;;15.70;86.70;;;;;;12739694;23;20523;-82
2023/10/10 12:39:14;;;;;;;21.50;14.23;;;15.70;86.20;;;;;;12733881;23;20579;-82
2023/10/10 12:44:17;;;;;;;19.53;14.20;;;15.80;86.70;;;;;;12751151;23;20511;-82
2023/10/10 12:49:28;;;;;;;16.13;13.87;;;15.70;87.80;;;;;;12732215;23;20239;-82
2023/10/10 12:54:34;;;;;;;18.87;15.20;;;15.80;87.20;;;;;;12751051;23;20420;-82
2023/10/10 12:59:38;;;;;;;21.63;16.50;;;15.80;84.80;;;;;;12731554;23;20196;-82
2023/10/10 13:04:46;;;;;;;19.85;14.25;;;15.60;87.90;;;;;;12736782;23;20173;-82
2023/10/10 13:09:49;;;;;;;13.53;10.57;;;15.40;88.60;;;;;;12732861;23;20180;-83
2023/10/10 13:15:05;;;;;;;20.27;13.10;;;15.40;89.70;;;;;;12706044;23;20238;-82
2023/10/10 13:20:11;;;;;;;19.30;15.57;;;15.30;90.20;;;;;;12735067;23;20215;-82
2023/10/10 13:25:14;;;;;;;14.17;10.50;;;15.10;91.50;;;;;;12732287;23;20561;-82
2023/10/10 13:30:16;;;;;;;15.03;12.73;;;14.90;92.40;;;;;;12730112;23;20184;-82
2023/10/10 13:35:19;;;;;;;19.97;14.83;;;14.90;93.10;;;;;;12732195;23;20495;-82
2023/10/10 13:40:22;;;;;;;18.97;14.20;;;15.00;92.70;;;;;;12736766;23;20200;-83
2023/10/10 13:45:28;;;;;;;21.03;15.53;;;14.90;93.00;;;;;;12732151;23;20172;-82
2023/10/10 13:50:42;;;;;;;20.37;15.07;;;14.90;93.10;;;;;;12680880;23;20239;-82
2023/10/10 13:55:45;;;;;;;16.50;12.43;;;14.70;93.90;;;;;;12732734;23;20511;-82
2023/10/10 14:01:13;;;;;;;19.55;13.10;;;14.60;95.00;;;;;;12730905;23;20736;-82
2023/10/10 14:06:19;;;;;;;19.73;16.13;;;14.70;95.10;;;;;;12732015;23;20582;-82
2023/10/10 14:11:21;;;;;;;27.57;20.60;;;14.70;96.30;;;;;;12705528;23;20201;-82
2023/10/10 14:16:24;;;;;;;24.55;17.65;;;14.60;97.00;;;;;;12731648;23;20177;-84
2023/10/10 14:21:27;;;;;;;27.67;21.27;;;14.30;98.90;;;;;;12750343;23;20212;-83
2023/10/10 14:26:33;;;;;;;31.47;21.20;;;14.30;99.80;;;;;;12748579;23;20165;-83
2023/10/10 14:31:45;;;;;;;29.47;21.43;;;14.10;99.90;;;;;;12749610;23;20620;-83
2023/10/10 14:36:51;;;;;;;26.57;20.17;;;14.00;99.90;;;;;;12750664;23;20168;-82
2023/10/10 14:41:58;;;;;;;29.23;20.90;;;14.00;99.90;;;;;;12732250;23;20225;-83
2023/10/10 14:47:04;;;;;;;29.63;22.90;;;13.90;99.90;;;;;;12706057;23;20508;-83
2023/10/10 14:52:07;;;;;;;38.13;28.77;;;13.90;99.90;;;;;;12723578;23;20219;-83
2023/10/10 14:57:23;;;;;;;43.73;34.07;;;13.70;99.90;;;;;;12724309;23;20176;-83
2023/10/10 15:02:27;;;;;;;36.43;28.87;;;13.70;99.90;;;;;;12731448;23;20578;-83
2023/10/10 15:07:30;;;;;;;39.63;31.07;;;13.60;99.90;;;;;;12730972;23;20503;-83
2023/10/10 15:12:33;;;;;;;33.33;24.50;;;13.60;99.90;;;;;;12730908;23;20227;-82
2023/10/10 15:17:37;;;;;;;38.30;30.00;;;13.60;99.90;;;;;;12704692;23;20183;-83
2023/10/10 15:22:41;;;;;;;28.37;21.73;;;13.60;99.90;;;;;;12731621;23;20247;-83
2023/10/10 15:27:44;;;;;;;21.57;16.33;;;13.60;99.90;;;;;;12731020;23;20164;-83
2023/10/10 15:32:47;;;;;;;30.07;20.87;;;13.70;99.90;;;;;;12730699;23;20652;-84
2023/10/10 15:37:52;;;;;;;35.60;27.17;;;13.70;99.90;;;;;;12680475;23;20795;-83
2023/10/10 15:42:57;;;;;;;22.90;17.97;;;13.70;99.90;;;;;;12730368;23;20239;-84
2023/10/10 15:48:01;;;;;;;20.60;15.17;;;13.80;99.90;;;;;;12703594;23;20176;-83
2023/10/10 15:53:05;;;;;;;27.43;21.17;;;13.80;99.90;;;;;;12729099;23;20521;-84
2023/10/10 15:58:08;;;;;;;19.47;15.47;;;13.90;99.90;;;;;;12703723;23;20804;-84
2023/10/10 16:03:12;;;;;;;15.23;12.27;;;13.90;99.90;;;;;;12729250;23;20337;-83
2023/10/10 16:08:15;;;;;;;28.93;22.67;;;13.90;99.90;;;;;;12704309;23;20624;-84
2023/10/10 16:13:18;;;;;;;33.23;26.83;;;13.70;99.90;;;;;;12703281;23;20180;-84
2023/10/10 16:18:21;;;;;;;16.57;12.20;;;13.70;99.90;;;;;;12704166;23;20176;-84
2023/10/10 16:23:24;;;;;;;29.83;21.80;;;13.80;99.90;;;;;;12730220;23;20766;-85
2023/10/10 16:28:27;;;;;;;31.47;23.27;;;13.90;99.90;;;;;;12729942;23;20604;-84
2023/10/10 16:33:30;;;;;;;31.10;24.47;;;13.70;99.90;;;;;;12702963;23;20184;-84
2023/10/10 16:38:36;;;;;;;26.87;19.63;;;13.50;99.90;;;;;;12730149;23;20188;-84
2023/10/10 16:43:39;;;;;;;20.00;16.60;;;13.40;99.90;;;;;;12746554;23;20168;-83
2023/10/10 16:48:46;;;;;;;27.43;20.50;;;13.50;99.90;;;;;;12728240;23;20180;-84
2023/10/10 16:53:52;;;;;;;32.33;20.83;;;13.60;99.90;;;;;;12726660;23;20196;-84
2023/10/10 16:58:55;;;;;;;34.23;24.20;;;13.60;99.90;;;;;;12700442;23;20231;-83
2023/10/10 17:04:00;;;;;;;19.83;13.87;;;13.60;99.90;;;;;;12726121;23;20516;-84
2023/10/10 17:09:04;;;;;;;34.37;25.60;;;13.50;99.90;;;;;;12700722;23;20176;-83
2023/10/10 17:14:07;;;;;;;51.30;33.40;;;13.40;99.90;;;;;;12724097;23;20239;-83
2023/10/10 17:19:10;;;;;;;43.17;31.77;;;12.80;99.90;;;;;;12705506;23;20196;-83
2023/10/10 17:24:19;;;;;;;43.90;31.47;;;12.40;99.90;;;;;;12748809;23;20165;-82
2023/10/10 17:29:23;;;;;;;51.23;37.13;;;12.10;99.90;;;;;;12705647;23;20550;-83
2023/10/10 17:34:32;;;;;;;51.23;35.20;;;12.00;99.90;;;;;;12729494;23;20206;-82
2023/10/10 17:39:35;;;;;;;50.00;36.60;;;11.90;99.90;;;;;;12728184;23;20208;-83
2023/10/10 17:44:38;;;;;;;49.90;36.50;;;11.90;99.90;;;;;;12731695;23;20192;-83
2023/10/10 17:49:41;;;;;;;52.80;37.90;;;11.80;99.90;;;;;;12704703;23;20712;-83
2023/10/10 17:54:43;;;;;;;78.60;52.83;;;11.70;99.90;;;;;;12730713;23;20168;-83
2023/10/10 17:59:52;;;;;;;49.27;34.67;;;11.60;99.90;;;;;;12731072;23;20188;-83
2023/10/10 18:04:55;;;;;;;47.13;33.67;;;11.50;99.90;;;;;;12735840;23;20180;-83
2023/10/10 18:09:58;;;;;;;54.07;35.63;;;11.40;99.90;;;;;;12731444;23;20173;-83
2023/10/10 18:15:05;;;;;;;50.83;34.00;;;11.30;99.90;;;;;;12705325;23;20177;-83
2023/10/10 18:20:14;;;;;;;51.07;35.67;;;11.20;99.90;;;;;;12730045;23;20566;-83
2023/10/10 18:25:18;;;;;;;48.07;34.57;;;11.10;99.90;;;;;;12748033;23;20161;-82
2023/10/10 18:30:20;;;;;;;48.37;35.77;;;10.90;99.90;;;;;;12730995;23;20550;-83
2023/10/10 18:35:26;;;;;;;49.10;33.93;;;10.70;99.90;;;;;;12730528;23;20172;-82
2023/10/10 18:40:30;;;;;;;46.77;33.57;;;10.50;99.90;;;;;;12729077;23;20208;-83
2023/10/10 18:45:37;;;;;;;53.43;36.03;;;10.40;99.90;;;;;;12705374;23;20168;-83
2023/10/10 18:50:39;;;;;;;54.70;35.93;;;10.20;99.90;;;;;;12705049;23;20238;-83
2023/10/10 18:55:47;;;;;;;55.97;35.93;;;10.20;99.90;;;;;;12722473;23;20485;-83
2023/10/10 19:00:51;;;;;;;57.07;37.43;;;10.10;99.90;;;;;;12747594;23;20243;-82
2023/10/10 19:05:53;;;;;;;57.23;38.93;;;10.10;99.90;;;;;;12730953;23;20172;-86
2023/10/10 19:10:56;;;;;;;52.53;37.40;;;10.10;99.90;;;;;;12730800;23;20555;-84
2023/10/10 19:16:01;;;;;;;62.27;39.90;;;10.00;99.90;;;;;;12730340;23;20223;-83
2023/10/10 19:21:15;;;;;;;62.20;39.40;;;10.10;99.90;;;;;;12729590;23;20196;-84
2023/10/10 19:26:18;;;;;;;83.40;53.27;;;10.10;99.90;;;;;;12729900;23;20168;-83
2023/10/10 19:31:22;;;;;;;40.80;26.10;;;10.10;99.90;;;;;;12727749;23;20200;-83
2023/10/10 19:36:25;;;;;;;35.63;22.83;;;10.20;99.90;;;;;;12730144;23;20246;-83
2023/10/10 19:41:29;;;;;;;28.33;19.77;;;10.50;99.90;;;;;;12728007;23;20207;-83
2023/10/10 19:46:32;;;;;;;21.97;16.70;;;10.70;99.90;;;;;;12729895;23;20173;-83
2023/10/10 19:51:40;;;;;;;34.37;25.17;;;11.00;99.90;;;;;;12746717;23;20474;-83
2023/10/10 19:56:44;;;;;;;44.30;32.77;;;11.30;99.90;;;;;;12747926;23;20229;-83
2023/10/10 20:01:47;;;;;;;45.93;32.43;;;11.30;99.90;;;;;;12729608;23;20196;-83
2023/10/10 20:06:52;;;;;;;35.87;24.40;;;11.50;99.90;;;;;;12730306;23;20171;-83
2023/10/10 20:11:55;;;;;;;34.40;23.73;;;11.50;99.90;;;;;;12730396;23;20180;-83
2023/10/10 20:16:57;;;;;;;44.63;29.03;;;11.60;99.90;;;;;;12702251;23;20180;-83
2023/10/10 20:22:00;;;;;;;38.93;26.97;;;11.60;99.90;;;;;;12729882;23;20235;-83
2023/10/10 20:27:05;;;;;;;40.03;28.30;;;11.60;99.90;;;;;;12729467;23;20516;-83
2023/10/10 20:32:07;;;;;;;39.07;26.97;;;11.60;99.90;;;;;;12729837;23;20176;-83
2023/10/10 20:37:10;;;;;;;45.83;28.63;;;11.60;99.90;;;;;;12729092;23;20250;-83
2023/10/10 20:42:12;;;;;;;39.47;25.57;;;11.60;99.90;;;;;;12728973;23;20526;-83
2023/10/10 20:47:15;;;;;;;43.30;28.63;;;11.70;99.90;;;;;;12727025;23;20165;-84
2023/10/10 20:52:17;;;;;;;39.97;26.20;;;11.80;99.90;;;;;;12732226;23;20240;-83
2023/10/10 20:57:20;;;;;;;37.47;26.27;;;11.80;99.90;;;;;;12707446;23;20173;-85
2023/10/10 21:02:22;;;;;;;33.73;24.03;;;11.80;99.90;;;;;;12732950;23;20192;-84
2023/10/10 21:07:25;;;;;;;32.03;22.73;;;11.80;99.90;;;;;;12733351;23;20176;-84
2023/10/10 21:12:27;;;;;;;38.40;25.90;;;12.00;99.90;;;;;;12733057;23;20223;-84
2023/10/10 21:17:32;;;;;;;30.80;22.17;;;12.10;99.90;;;;;;12732252;23;20173;-84
2023/10/10 21:22:38;;;;;;;30.13;21.13;;;12.00;99.90;;;;;;12732359;23;20188;-84
2023/10/10 21:27:43;;;;;;;32.77;23.73;;;12.10;99.90;;;;;;12749199;23;20200;-84
2023/10/10 21:32:46;;;;;;;32.70;23.40;;;12.20;99.90;;;;;;12731838;23;20177;-84
2023/10/10 21:37:49;;;;;;;44.13;28.57;;;12.20;99.90;;;;;;12706767;23;20192;-84
2023/10/10 21:42:53;;;;;;;37.30;23.83;;;12.30;99.90;;;;;;12705981;23;20200;-84
2023/10/10 21:47:57;;;;;;;31.03;21.10;;;12.40;99.90;;;;;;12731967;23;20177;-84
2023/10/10 21:53:00;;;;;;;31.97;20.67;;;12.60;99.90;;;;;;12705045;23;20176;-84
2023/10/10 21:58:04;;;;;;;39.13;26.37;;;12.50;99.90;;;;;;12706393;23;20247;-84
2023/10/10 22:03:08;;;;;;;29.60;21.83;;;12.50;99.90;;;;;;12731078;23;20189;-84
2023/10/10 22:08:11;;;;;;;33.43;23.57;;;12.50;99.90;;;;;;12704972;23;20176;-84
2023/10/10 22:13:14;;;;;;;35.53;23.90;;;12.60;99.90;;;;;;12731582;23;20203;-84
2023/10/10 22:18:19;;;;;;;33.47;24.53;;;12.50;99.90;;;;;;12730572;23;20573;-83
2023/10/10 22:23:22;;;;;;;33.13;22.50;;;12.50;99.90;;;;;;12730287;23;20200;-83
2023/10/10 22:28:25;;;;;;;26.60;18.20;;;12.70;99.90;;;;;;12731209;23;20172;-83
2023/10/10 22:33:28;;;;;;;33.60;24.27;;;12.70;99.90;;;;;;12729994;23;20184;-83
2023/10/10 22:38:30;;;;;;;31.87;21.13;;;12.70;99.90;;;;;;12730529;23;20231;-84
2023/10/10 22:43:33;;;;;;;34.83;23.33;;;12.80;99.90;;;;;;12730062;23;20196;-83
2023/10/10 22:48:38;;;;;;;28.50;19.07;;;12.90;99.90;;;;;;12730487;23;20221;-83
2023/10/10 22:53:41;;;;;;;29.37;20.83;;;13.00;99.90;;;;;;12729536;23;20247;-83
2023/10/10 22:58:44;;;;;;;35.67;24.57;;;13.00;99.90;;;;;;12679235;23;20181;-83
2023/10/10 23:03:47;;;;;;;27.57;20.83;;;12.90;99.90;;;;;;12730153;23;20262;-83
2023/10/10 23:08:50;;;;;;;30.30;23.10;;;12.90;99.90;;;;;;12731194;23;20499;-83
2023/10/10 23:13:52;;;;;;;33.63;24.67;;;12.90;99.90;;;;;;12729818;23;20172;-83
2023/10/10 23:18:56;;;;;;;32.33;23.67;;;13.00;99.90;;;;;;12740075;23;20176;-83
2023/10/10 23:23:59;;;;;;;30.07;21.73;;;12.90;99.90;;;;;;12703734;23;20805;-83
2023/10/10 23:29:02;;;;;;;18.83;14.77;;;12.80;99.90;;;;;;12729581;23;20168;-83
2023/10/10 23:34:04;;;;;;;28.80;21.47;;;12.90;99.90;;;;;;12730127;23;20188;-83
2023/10/10 23:39:07;;;;;;;32.33;23.10;;;12.70;99.90;;;;;;12703606;23;20208;-83
2023/10/10 23:44:10;;;;;;;26.47;19.30;;;12.80;99.90;;;;;;12728494;23;20658;-83
2023/10/10 23:49:13;;;;;;;25.60;19.13;;;12.80;99.90;;;;;;12729427;23;20188;-83
2023/10/10 23:54:16;;;;;;;22.37;16.37;;;12.70;99.90;;;;;;12729034;23;20180;-84
2023/10/10 23:59:20;;;;;;;32.37;20.80;;;12.70;99.90;;;;;;12729899;23;20630;-83
